sensor_id;sensor_type;location;lat;lon;timestamp;P1;durP1;ratioP1;P2;durP2;ratioP2
37677;SDS011;23517;50.390;8.616;2022-12-07T00:01:42;19.75;;;14.02;;
37677;SDS011;23517;50.390;8.616;2022-12-07T00:04:13;25.50;;;15.15;;
37677;SDS011;23517;50.390;8.616;2022-12-07T00:06:42;20.10;;;13.65;;
37677;SDS011;23517;50.390;8.616;2022-12-07T00:09:15;20.15;;;14.60;;
37677;SDS011;23517;50.390;8.616;2022-12-07T00:11:48;22.30;;;15.07;;
37677;SDS011;23517;50.390;8.616;2022-12-07T00:14:17;22.73;;;14.63;;
37677;SDS011;23517;50.390;8.616;2022-12-07T00:16:44;20.02;;;13.90;;
37677;SDS011;23517;50.390;8.616;2022-12-07T00:19:12;22.88;;;14.73;;
37677;SDS011;23517;50.390;8.616;2022-12-07T00:21:39;22.20;;;14.57;;
37677;SDS011;23517;50.390;8.616;2022-12-07T00:24:07;19.77;;;14.48;;
37677;SDS011;23517;50.390;8.616;2022-12-07T00:26:35;21.25;;;13.85;;
37677;SDS011;23517;50.390;8.616;2022-12-07T00:29:05;18.77;;;13.00;;
37677;SDS011;23517;50.390;8.616;2022-12-07T00:31:36;19.08;;;13.93;;
37677;SDS011;23517;50.390;8.616;2022-12-07T00:34:07;19.05;;;13.05;;
37677;SDS011;23517;50.390;8.616;2022-12-07T00:36:40;18.77;;;12.65;;
37677;SDS011;23517;50.390;8.616;2022-12-07T00:39:07;23.38;;;12.93;;
37677;SDS011;23517;50.390;8.616;2022-12-07T00:41:34;22.35;;;12.90;;
37677;SDS011;23517;50.390;8.616;2022-12-07T00:44:01;22.50;;;12.27;;
37677;SDS011;23517;50.390;8.616;2022-12-07T00:46:27;18.73;;;12.30;;
37677;SDS011;23517;50.390;8.616;2022-12-07T00:48:55;18.58;;;12.38;;
37677;SDS011;23517;50.390;8.616;2022-12-07T00:51:23;19.13;;;12.18;;
37677;SDS011;23517;50.390;8.616;2022-12-07T00:53:50;17.10;;;11.30;;
37677;SDS011;23517;50.390;8.616;2022-12-07T00:56:19;20.52;;;11.75;;
37677;SDS011;23517;50.390;8.616;2022-12-07T00:58:50;16.90;;;11.23;;
37677;SDS011;23517;50.390;8.616;2022-12-07T01:01:28;22.17;;;12.80;;
37677;SDS011;23517;50.390;8.616;2022-12-07T01:03:59;21.02;;;11.95;;
37677;SDS011;23517;50.390;8.616;2022-12-07T01:06:29;18.13;;;11.10;;
37677;SDS011;23517;50.390;8.616;2022-12-07T01:08:56;17.67;;;10.82;;
37677;SDS011;23517;50.390;8.616;2022-12-07T01:11:26;18.63;;;10.88;;
37677;SDS011;23517;50.390;8.616;2022-12-07T01:13:56;18.05;;;11.23;;
37677;SDS011;23517;50.390;8.616;2022-12-07T01:16:25;16.92;;;10.40;;
37677;SDS011;23517;50.390;8.616;2022-12-07T01:18:55;17.58;;;10.75;;
37677;SDS011;23517;50.390;8.616;2022-12-07T01:21:30;15.70;;;9.95;;
37677;SDS011;23517;50.390;8.616;2022-12-07T01:24:04;14.65;;;9.73;;
37677;SDS011;23517;50.390;8.616;2022-12-07T01:26:33;14.15;;;10.30;;
37677;SDS011;23517;50.390;8.616;2022-12-07T01:29:00;15.98;;;9.48;;
37677;SDS011;23517;50.390;8.616;2022-12-07T01:31:28;13.80;;;8.45;;
37677;SDS011;23517;50.390;8.616;2022-12-07T01:33:55;14.90;;;8.95;;
37677;SDS011;23517;50.390;8.616;2022-12-07T01:36:26;13.48;;;8.90;;
37677;SDS011;23517;50.390;8.616;2022-12-07T01:38:57;13.73;;;8.82;;
37677;SDS011;23517;50.390;8.616;2022-12-07T01:41:29;11.50;;;7.80;;
37677;SDS011;23517;50.390;8.616;2022-12-07T01:44:12;15.48;;;8.23;;
37677;SDS011;23517;50.390;8.616;2022-12-07T01:46:46;11.85;;;8.35;;
37677;SDS011;23517;50.390;8.616;2022-12-07T01:49:26;11.95;;;7.53;;
37677;SDS011;23517;50.390;8.616;2022-12-07T01:52:18;15.18;;;9.50;;
37677;SDS011;23517;50.390;8.616;2022-12-07T01:54:51;14.48;;;8.77;;
37677;SDS011;23517;50.390;8.616;2022-12-07T01:57:21;13.55;;;8.23;;
37677;SDS011;23517;50.390;8.616;2022-12-07T01:59:49;13.45;;;7.75;;
37677;SDS011;23517;50.390;8.616;2022-12-07T02:02:19;11.75;;;7.75;;
37677;SDS011;23517;50.390;8.616;2022-12-07T02:04:52;10.50;;;6.93;;
37677;SDS011;23517;50.390;8.616;2022-12-07T02:07:20;10.18;;;6.25;;
37677;SDS011;23517;50.390;8.616;2022-12-07T02:09:49;10.13;;;7.10;;
37677;SDS011;23517;50.390;8.616;2022-12-07T02:12:15;10.27;;;6.75;;
37677;SDS011;23517;50.390;8.616;2022-12-07T02:14:42;9.57;;;5.95;;
37677;SDS011;23517;50.390;8.616;2022-12-07T02:17:14;13.07;;;6.10;;
37677;SDS011;23517;50.390;8.616;2022-12-07T02:31:37;12.82;;;7.32;;
37677;SDS011;23517;50.390;8.616;2022-12-07T02:34:32;11.07;;;7.00;;
37677;SDS011;23517;50.390;8.616;2022-12-07T02:37:26;11.63;;;6.80;;
37677;SDS011;23517;50.390;8.616;2022-12-07T02:42:38;9.95;;;6.57;;
37677;SDS011;23517;50.390;8.616;2022-12-07T02:45:11;9.90;;;6.63;;
37677;SDS011;23517;50.390;8.616;2022-12-07T02:47:41;9.57;;;6.28;;
37677;SDS011;23517;50.390;8.616;2022-12-07T02:50:10;10.70;;;7.05;;
37677;SDS011;23517;50.390;8.616;2022-12-07T02:52:37;8.35;;;5.78;;
37677;SDS011;23517;50.390;8.616;2022-12-07T02:55:04;8.05;;;5.60;;
37677;SDS011;23517;50.390;8.616;2022-12-07T02:57:37;9.95;;;6.25;;
37677;SDS011;23517;50.390;8.616;2022-12-07T03:00:20;9.00;;;5.65;;
37677;SDS011;23517;50.390;8.616;2022-12-07T03:02:54;9.38;;;6.78;;
37677;SDS011;23517;50.390;8.616;2022-12-07T03:11:13;10.13;;;6.65;;
37677;SDS011;23517;50.390;8.616;2022-12-07T03:17:01;9.82;;;6.40;;
37677;SDS011;23517;50.390;8.616;2022-12-07T03:19:36;8.98;;;6.80;;
37677;SDS011;23517;50.390;8.616;2022-12-07T03:22:05;9.05;;;6.70;;
37677;SDS011;23517;50.390;8.616;2022-12-07T03:24:38;10.45;;;7.05;;
37677;SDS011;23517;50.390;8.616;2022-12-07T03:27:19;12.93;;;6.90;;
37677;SDS011;23517;50.390;8.616;2022-12-07T03:29:53;9.77;;;7.38;;
37677;SDS011;23517;50.390;8.616;2022-12-07T03:35:03;11.02;;;7.22;;
37677;SDS011;23517;50.390;8.616;2022-12-07T03:37:35;9.40;;;5.97;;
37677;SDS011;23517;50.390;8.616;2022-12-07T03:40:25;10.98;;;6.78;;
37677;SDS011;23517;50.390;8.616;2022-12-07T03:43:07;9.27;;;6.88;;
37677;SDS011;23517;50.390;8.616;2022-12-07T03:45:38;9.40;;;6.63;;
37677;SDS011;23517;50.390;8.616;2022-12-07T03:48:22;11.85;;;7.15;;
37677;SDS011;23517;50.390;8.616;2022-12-07T03:51:21;10.82;;;6.82;;
37677;SDS011;23517;50.390;8.616;2022-12-07T03:54:18;8.98;;;6.93;;
37677;SDS011;23517;50.390;8.616;2022-12-07T03:56:50;9.07;;;7.20;;
37677;SDS011;23517;50.390;8.616;2022-12-07T03:59:18;9.07;;;6.68;;
37677;SDS011;23517;50.390;8.616;2022-12-07T04:01:51;9.35;;;6.90;;
37677;SDS011;23517;50.390;8.616;2022-12-07T04:04:22;9.60;;;6.85;;
37677;SDS011;23517;50.390;8.616;2022-12-07T04:06:50;8.80;;;6.53;;
37677;SDS011;23517;50.390;8.616;2022-12-07T04:09:17;9.88;;;6.75;;
37677;SDS011;23517;50.390;8.616;2022-12-07T04:11:43;10.90;;;7.55;;
37677;SDS011;23517;50.390;8.616;2022-12-07T04:14:10;10.00;;;7.45;;
37677;SDS011;23517;50.390;8.616;2022-12-07T04:16:53;11.95;;;8.02;;
37677;SDS011;23517;50.390;8.616;2022-12-07T04:19:27;13.07;;;8.35;;
37677;SDS011;23517;50.390;8.616;2022-12-07T04:21:57;11.98;;;8.40;;
37677;SDS011;23517;50.390;8.616;2022-12-07T04:24:26;10.98;;;8.43;;
37677;SDS011;23517;50.390;8.616;2022-12-07T04:26:53;12.52;;;8.95;;
37677;SDS011;23517;50.390;8.616;2022-12-07T04:29:20;11.65;;;8.48;;
37677;SDS011;23517;50.390;8.616;2022-12-07T04:31:47;13.98;;;9.07;;
37677;SDS011;23517;50.390;8.616;2022-12-07T04:34:15;14.52;;;10.05;;
37677;SDS011;23517;50.390;8.616;2022-12-07T04:36:43;12.63;;;8.32;;
37677;SDS011;23517;50.390;8.616;2022-12-07T04:39:19;13.52;;;8.90;;
37677;SDS011;23517;50.390;8.616;2022-12-07T04:41:50;12.25;;;8.57;;
37677;SDS011;23517;50.390;8.616;2022-12-07T04:44:18;11.82;;;8.15;;
37677;SDS011;23517;50.390;8.616;2022-12-07T04:46:45;12.57;;;8.23;;
37677;SDS011;23517;50.390;8.616;2022-12-07T04:49:13;13.65;;;8.20;;
37677;SDS011;23517;50.390;8.616;2022-12-07T04:51:41;11.00;;;7.50;;
37677;SDS011;23517;50.390;8.616;2022-12-07T04:54:09;10.95;;;8.27;;
37677;SDS011;23517;50.390;8.616;2022-12-07T04:56:36;14.00;;;8.02;;
37677;SDS011;23517;50.390;8.616;2022-12-07T04:59:03;9.95;;;7.35;;
37677;SDS011;23517;50.390;8.616;2022-12-07T05:01:31;10.30;;;8.27;;
37677;SDS011;23517;50.390;8.616;2022-12-07T05:03:58;10.57;;;8.05;;
37677;SDS011;23517;50.390;8.616;2022-12-07T05:06:27;10.43;;;7.70;;
37677;SDS011;23517;50.390;8.616;2022-12-07T05:08:54;11.23;;;8.05;;
37677;SDS011;23517;50.390;8.616;2022-12-07T05:11:21;12.43;;;8.25;;
37677;SDS011;23517;50.390;8.616;2022-12-07T05:14:16;11.73;;;7.78;;
37677;SDS011;23517;50.390;8.616;2022-12-07T05:16:46;11.75;;;8.02;;
37677;SDS011;23517;50.390;8.616;2022-12-07T05:19:16;10.68;;;8.05;;
37677;SDS011;23517;50.390;8.616;2022-12-07T05:21:44;12.13;;;7.88;;
37677;SDS011;23517;50.390;8.616;2022-12-07T05:24:12;10.32;;;8.45;;
37677;SDS011;23517;50.390;8.616;2022-12-07T05:26:40;13.25;;;8.80;;
37677;SDS011;23517;50.390;8.616;2022-12-07T05:29:09;11.68;;;8.65;;
37677;SDS011;23517;50.390;8.616;2022-12-07T05:31:41;12.38;;;8.52;;
37677;SDS011;23517;50.390;8.616;2022-12-07T05:34:08;13.38;;;8.80;;
37677;SDS011;23517;50.390;8.616;2022-12-07T05:36:36;14.13;;;9.00;;
37677;SDS011;23517;50.390;8.616;2022-12-07T05:39:03;12.63;;;9.48;;
37677;SDS011;23517;50.390;8.616;2022-12-07T05:41:30;14.70;;;9.98;;
37677;SDS011;23517;50.390;8.616;2022-12-07T05:44:15;14.73;;;9.98;;
37677;SDS011;23517;50.390;8.616;2022-12-07T05:46:41;14.88;;;10.63;;
37677;SDS011;23517;50.390;8.616;2022-12-07T05:49:08;15.32;;;10.77;;
37677;SDS011;23517;50.390;8.616;2022-12-07T05:51:35;16.27;;;10.77;;
37677;SDS011;23517;50.390;8.616;2022-12-07T05:54:02;15.00;;;10.65;;
37677;SDS011;23517;50.390;8.616;2022-12-07T05:56:29;12.70;;;9.57;;
37677;SDS011;23517;50.390;8.616;2022-12-07T05:58:55;13.63;;;9.90;;
37677;SDS011;23517;50.390;8.616;2022-12-07T06:01:58;12.65;;;8.93;;
37677;SDS011;23517;50.390;8.616;2022-12-07T06:04:33;16.17;;;9.73;;
37677;SDS011;23517;50.390;8.616;2022-12-07T06:07:03;13.85;;;8.20;;
37677;SDS011;23517;50.390;8.616;2022-12-07T06:09:31;14.50;;;8.38;;
37677;SDS011;23517;50.390;8.616;2022-12-07T06:11:58;12.18;;;8.88;;
37677;SDS011;23517;50.390;8.616;2022-12-07T06:14:44;12.20;;;8.98;;
37677;SDS011;23517;50.390;8.616;2022-12-07T06:17:11;10.93;;;7.53;;
37677;SDS011;23517;50.390;8.616;2022-12-07T06:19:38;14.07;;;8.45;;
37677;SDS011;23517;50.390;8.616;2022-12-07T06:22:06;12.90;;;8.50;;
37677;SDS011;23517;50.390;8.616;2022-12-07T06:24:33;14.98;;;8.32;;
37677;SDS011;23517;50.390;8.616;2022-12-07T06:27:00;10.82;;;7.93;;
37677;SDS011;23517;50.390;8.616;2022-12-07T06:29:27;9.95;;;7.40;;
37677;SDS011;23517;50.390;8.616;2022-12-07T06:31:53;11.82;;;7.97;;
37677;SDS011;23517;50.390;8.616;2022-12-07T06:34:21;11.55;;;7.55;;
37677;SDS011;23517;50.390;8.616;2022-12-07T06:36:49;11.20;;;7.75;;
37677;SDS011;23517;50.390;8.616;2022-12-07T06:39:21;11.70;;;8.15;;
37677;SDS011;23517;50.390;8.616;2022-12-07T06:41:51;11.27;;;7.53;;
37677;SDS011;23517;50.390;8.616;2022-12-07T06:44:18;12.90;;;8.45;;
37677;SDS011;23517;50.390;8.616;2022-12-07T06:46:51;10.25;;;8.07;;
37677;SDS011;23517;50.390;8.616;2022-12-07T06:49:37;9.00;;;7.10;;
37677;SDS011;23517;50.390;8.616;2022-12-07T06:52:04;12.38;;;7.30;;
37677;SDS011;23517;50.390;8.616;2022-12-07T06:54:31;9.82;;;7.10;;
37677;SDS011;23517;50.390;8.616;2022-12-07T06:56:58;8.07;;;6.30;;
37677;SDS011;23517;50.390;8.616;2022-12-07T06:59:24;10.02;;;6.78;;
37677;SDS011;23517;50.390;8.616;2022-12-07T07:01:51;8.88;;;6.88;;
37677;SDS011;23517;50.390;8.616;2022-12-07T07:04:18;9.77;;;6.90;;
37677;SDS011;23517;50.390;8.616;2022-12-07T07:06:44;9.80;;;6.97;;
37677;SDS011;23517;50.390;8.616;2022-12-07T07:09:12;9.73;;;7.20;;
37677;SDS011;23517;50.390;8.616;2022-12-07T07:11:38;10.85;;;7.35;;
37677;SDS011;23517;50.390;8.616;2022-12-07T07:14:05;10.10;;;7.38;;
37677;SDS011;23517;50.390;8.616;2022-12-07T07:16:31;9.63;;;7.40;;
37677;SDS011;23517;50.390;8.616;2022-12-07T07:18:58;12.65;;;8.60;;
37677;SDS011;23517;50.390;8.616;2022-12-07T07:21:25;8.85;;;6.93;;
37677;SDS011;23517;50.390;8.616;2022-12-07T07:23:51;12.82;;;7.35;;
37677;SDS011;23517;50.390;8.616;2022-12-07T07:26:18;9.57;;;6.93;;
37677;SDS011;23517;50.390;8.616;2022-12-07T07:28:48;12.80;;;6.78;;
37677;SDS011;23517;50.390;8.616;2022-12-07T07:31:15;10.70;;;7.60;;
37677;SDS011;23517;50.390;8.616;2022-12-07T07:33:41;10.68;;;7.70;;
37677;SDS011;23517;50.390;8.616;2022-12-07T07:36:08;9.40;;;6.93;;
37677;SDS011;23517;50.390;8.616;2022-12-07T07:38:35;9.55;;;7.97;;
37677;SDS011;23517;50.390;8.616;2022-12-07T07:41:01;8.13;;;6.55;;
37677;SDS011;23517;50.390;8.616;2022-12-07T07:43:28;10.82;;;6.97;;
37677;SDS011;23517;50.390;8.616;2022-12-07T07:45:55;11.25;;;6.68;;
37677;SDS011;23517;50.390;8.616;2022-12-07T07:48:21;9.98;;;6.50;;
37677;SDS011;23517;50.390;8.616;2022-12-07T07:50:51;11.27;;;7.60;;
37677;SDS011;23517;50.390;8.616;2022-12-07T07:53:17;9.35;;;6.75;;
37677;SDS011;23517;50.390;8.616;2022-12-07T07:55:51;12.38;;;7.72;;
37677;SDS011;23517;50.390;8.616;2022-12-07T07:58:21;10.48;;;6.82;;
37677;SDS011;23517;50.390;8.616;2022-12-07T08:00:47;10.15;;;7.07;;
37677;SDS011;23517;50.390;8.616;2022-12-07T08:03:14;12.60;;;8.02;;
37677;SDS011;23517;50.390;8.616;2022-12-07T08:05:41;10.45;;;6.82;;
37677;SDS011;23517;50.390;8.616;2022-12-07T08:08:08;10.60;;;7.07;;
37677;SDS011;23517;50.390;8.616;2022-12-07T08:10:34;12.00;;;7.65;;
37677;SDS011;23517;50.390;8.616;2022-12-07T08:13:01;11.07;;;7.32;;
37677;SDS011;23517;50.390;8.616;2022-12-07T08:15:37;11.32;;;6.65;;
37677;SDS011;23517;50.390;8.616;2022-12-07T08:18:07;14.40;;;7.40;;
37677;SDS011;23517;50.390;8.616;2022-12-07T08:20:34;12.70;;;7.63;;
37677;SDS011;23517;50.390;8.616;2022-12-07T08:23:02;13.70;;;7.57;;
37677;SDS011;23517;50.390;8.616;2022-12-07T08:25:29;13.25;;;8.02;;
37677;SDS011;23517;50.390;8.616;2022-12-07T08:27:57;9.18;;;7.05;;
37677;SDS011;23517;50.390;8.616;2022-12-07T08:30:24;13.23;;;7.38;;
37677;SDS011;23517;50.390;8.616;2022-12-07T08:32:51;11.93;;;7.22;;
37677;SDS011;23517;50.390;8.616;2022-12-07T08:35:17;9.95;;;6.63;;
37677;SDS011;23517;50.390;8.616;2022-12-07T08:37:44;12.82;;;7.38;;
37677;SDS011;23517;50.390;8.616;2022-12-07T08:40:11;11.35;;;7.18;;
37677;SDS011;23517;50.390;8.616;2022-12-07T08:42:42;12.68;;;6.97;;
37677;SDS011;23517;50.390;8.616;2022-12-07T08:45:11;9.68;;;6.70;;
37677;SDS011;23517;50.390;8.616;2022-12-07T08:47:43;9.27;;;5.85;;
37677;SDS011;23517;50.390;8.616;2022-12-07T08:50:20;10.93;;;5.68;;
37677;SDS011;23517;50.390;8.616;2022-12-07T08:52:48;8.70;;;6.10;;
37677;SDS011;23517;50.390;8.616;2022-12-07T08:55:19;11.48;;;6.82;;
37677;SDS011;23517;50.390;8.616;2022-12-07T08:57:45;10.13;;;6.82;;
37677;SDS011;23517;50.390;8.616;2022-12-07T09:00:12;8.88;;;5.80;;
37677;SDS011;23517;50.390;8.616;2022-12-07T09:02:40;8.43;;;5.63;;
37677;SDS011;23517;50.390;8.616;2022-12-07T09:05:07;6.38;;;4.82;;
37677;SDS011;23517;50.390;8.616;2022-12-07T09:07:42;6.47;;;5.00;;
37677;SDS011;23517;50.390;8.616;2022-12-07T09:10:12;8.60;;;6.20;;
37677;SDS011;23517;50.390;8.616;2022-12-07T09:12:38;12.63;;;7.43;;
37677;SDS011;23517;50.390;8.616;2022-12-07T09:15:05;13.35;;;6.10;;
37677;SDS011;23517;50.390;8.616;2022-12-07T09:17:33;10.43;;;6.60;;
37677;SDS011;23517;50.390;8.616;2022-12-07T09:20:02;9.00;;;5.70;;
37677;SDS011;23517;50.390;8.616;2022-12-07T09:22:31;10.95;;;5.55;;
37677;SDS011;23517;50.390;8.616;2022-12-07T09:25:01;10.55;;;6.43;;
37677;SDS011;23517;50.390;8.616;2022-12-07T09:27:29;5.72;;;4.32;;
37677;SDS011;23517;50.390;8.616;2022-12-07T09:29:56;9.13;;;5.68;;
37677;SDS011;23517;50.390;8.616;2022-12-07T09:32:23;9.02;;;6.03;;
37677;SDS011;23517;50.390;8.616;2022-12-07T09:34:50;10.85;;;6.65;;
37677;SDS011;23517;50.390;8.616;2022-12-07T09:37:17;7.90;;;4.60;;
37677;SDS011;23517;50.390;8.616;2022-12-07T09:39:44;9.32;;;4.68;;
37677;SDS011;23517;50.390;8.616;2022-12-07T09:42:24;7.28;;;4.07;;
37677;SDS011;23517;50.390;8.616;2022-12-07T09:45:06;5.10;;;3.75;;
37677;SDS011;23517;50.390;8.616;2022-12-07T09:47:38;8.07;;;4.60;;
37677;SDS011;23517;50.390;8.616;2022-12-07T09:50:06;6.05;;;3.38;;
37677;SDS011;23517;50.390;8.616;2022-12-07T09:52:55;8.80;;;3.95;;
37677;SDS011;23517;50.390;8.616;2022-12-07T09:55:34;12.32;;;4.32;;
37677;SDS011;23517;50.390;8.616;2022-12-07T09:58:02;9.65;;;4.30;;
37677;SDS011;23517;50.390;8.616;2022-12-07T10:00:29;9.60;;;3.88;;
37677;SDS011;23517;50.390;8.616;2022-12-07T10:02:57;6.78;;;3.55;;
37677;SDS011;23517;50.390;8.616;2022-12-07T10:05:27;5.72;;;3.17;;
37677;SDS011;23517;50.390;8.616;2022-12-07T10:07:59;5.00;;;3.45;;
37677;SDS011;23517;50.390;8.616;2022-12-07T10:10:30;5.05;;;3.42;;
37677;SDS011;23517;50.390;8.616;2022-12-07T10:13:05;7.82;;;4.32;;
37677;SDS011;23517;50.390;8.616;2022-12-07T10:18:17;10.05;;;5.25;;
37677;SDS011;23517;50.390;8.616;2022-12-07T10:23:34;8.88;;;4.32;;
37677;SDS011;23517;50.390;8.616;2022-12-07T10:26:21;6.68;;;4.40;;
37677;SDS011;23517;50.390;8.616;2022-12-07T10:29:04;7.13;;;4.63;;
37677;SDS011;23517;50.390;8.616;2022-12-07T10:32:02;8.43;;;5.55;;
37677;SDS011;23517;50.390;8.616;2022-12-07T10:34:32;13.27;;;5.38;;
37677;SDS011;23517;50.390;8.616;2022-12-07T10:39:44;8.70;;;4.90;;
37677;SDS011;23517;50.390;8.616;2022-12-07T10:42:23;7.90;;;3.90;;
37677;SDS011;23517;50.390;8.616;2022-12-07T10:45:10;8.95;;;3.70;;
37677;SDS011;23517;50.390;8.616;2022-12-07T10:53:40;8.73;;;3.88;;
37677;SDS011;23517;50.390;8.616;2022-12-07T11:00:00;6.25;;;3.53;;
37677;SDS011;23517;50.390;8.616;2022-12-07T11:02:52;6.47;;;3.35;;
37677;SDS011;23517;50.390;8.616;2022-12-07T11:14:05;8.48;;;4.20;;
37677;SDS011;23517;50.390;8.616;2022-12-07T11:17:02;5.22;;;3.20;;
37677;SDS011;23517;50.390;8.616;2022-12-07T11:19:44;6.90;;;3.05;;
37677;SDS011;23517;50.390;8.616;2022-12-07T11:22:34;5.60;;;3.00;;
37677;SDS011;23517;50.390;8.616;2022-12-07T11:25:35;7.35;;;2.95;;
37677;SDS011;23517;50.390;8.616;2022-12-07T11:31:12;5.30;;;3.15;;
37677;SDS011;23517;50.390;8.616;2022-12-07T11:34:30;8.82;;;3.33;;
37677;SDS011;23517;50.390;8.616;2022-12-07T11:37:21;6.53;;;3.05;;
37677;SDS011;23517;50.390;8.616;2022-12-07T11:40:05;10.43;;;3.45;;
37677;SDS011;23517;50.390;8.616;2022-12-07T11:42:55;7.25;;;3.90;;
37677;SDS011;23517;50.390;8.616;2022-12-07T11:46:08;7.88;;;3.60;;
37677;SDS011;23517;50.390;8.616;2022-12-07T11:48:43;9.90;;;3.95;;
37677;SDS011;23517;50.390;8.616;2022-12-07T11:51:54;9.45;;;3.45;;
37677;SDS011;23517;50.390;8.616;2022-12-07T11:54:32;8.95;;;3.67;;
37677;SDS011;23517;50.390;8.616;2022-12-07T11:57:09;7.13;;;3.70;;
37677;SDS011;23517;50.390;8.616;2022-12-07T11:59:48;5.80;;;3.00;;
37677;SDS011;23517;50.390;8.616;2022-12-07T12:02:20;6.95;;;3.08;;
37677;SDS011;23517;50.390;8.616;2022-12-07T12:05:17;6.78;;;3.30;;
37677;SDS011;23517;50.390;8.616;2022-12-07T12:07:49;9.23;;;2.95;;
37677;SDS011;23517;50.390;8.616;2022-12-07T12:19:34;7.53;;;2.88;;
37677;SDS011;23517;50.390;8.616;2022-12-07T12:22:24;4.03;;;2.40;;
37677;SDS011;23517;50.390;8.616;2022-12-07T12:25:04;6.75;;;2.45;;
37677;SDS011;23517;50.390;8.616;2022-12-07T12:27:38;3.88;;;2.00;;
37677;SDS011;23517;50.390;8.616;2022-12-07T12:30:06;3.38;;;2.05;;
37677;SDS011;23517;50.390;8.616;2022-12-07T12:33:03;3.10;;;1.80;;
37677;SDS011;23517;50.390;8.616;2022-12-07T12:44:38;4.75;;;2.53;;
37677;SDS011;23517;50.390;8.616;2022-12-07T12:47:03;8.65;;;5.05;;
37677;SDS011;23517;50.390;8.616;2022-12-07T12:50:13;16.73;;;8.75;;
37677;SDS011;23517;50.390;8.616;2022-12-07T12:53:02;17.70;;;8.60;;
37677;SDS011;23517;50.390;8.616;2022-12-07T13:00:49;8.50;;;5.65;;
37677;SDS011;23517;50.390;8.616;2022-12-07T13:03:53;7.40;;;4.18;;
37677;SDS011;23517;50.390;8.616;2022-12-07T13:08:52;4.28;;;3.45;;
37677;SDS011;23517;50.390;8.616;2022-12-07T13:11:32;4.03;;;2.90;;
37677;SDS011;23517;50.390;8.616;2022-12-07T13:20:00;3.33;;;2.80;;
37677;SDS011;23517;50.390;8.616;2022-12-07T13:25:05;8.05;;;3.10;;
37677;SDS011;23517;50.390;8.616;2022-12-07T13:27:55;7.43;;;3.47;;
37677;SDS011;23517;50.390;8.616;2022-12-07T13:33:45;5.50;;;2.72;;
37677;SDS011;23517;50.390;8.616;2022-12-07T13:36:23;6.18;;;2.53;;
37677;SDS011;23517;50.390;8.616;2022-12-07T13:39:11;6.10;;;3.20;;
37677;SDS011;23517;50.390;8.616;2022-12-07T13:41:50;5.65;;;2.80;;
37677;SDS011;23517;50.390;8.616;2022-12-07T13:44:25;4.78;;;2.90;;
37677;SDS011;23517;50.390;8.616;2022-12-07T13:49:58;10.32;;;3.45;;
37677;SDS011;23517;50.390;8.616;2022-12-07T13:52:27;6.80;;;3.10;;
37677;SDS011;23517;50.390;8.616;2022-12-07T13:55:13;8.73;;;3.20;;
37677;SDS011;23517;50.390;8.616;2022-12-07T13:57:43;8.00;;;3.40;;
37677;SDS011;23517;50.390;8.616;2022-12-07T14:00:14;9.63;;;4.30;;
37677;SDS011;23517;50.390;8.616;2022-12-07T14:07:56;5.75;;;3.10;;
37677;SDS011;23517;50.390;8.616;2022-12-07T14:10:27;12.82;;;6.38;;
37677;SDS011;23517;50.390;8.616;2022-12-07T14:12:56;8.40;;;5.65;;
37677;SDS011;23517;50.390;8.616;2022-12-07T14:15:26;7.13;;;3.92;;
37677;SDS011;23517;50.390;8.616;2022-12-07T14:17:57;7.68;;;3.28;;
37677;SDS011;23517;50.390;8.616;2022-12-07T14:20:30;5.28;;;2.50;;
37677;SDS011;23517;50.390;8.616;2022-12-07T14:22:58;11.05;;;7.07;;
37677;SDS011;23517;50.390;8.616;2022-12-07T14:25:25;7.22;;;4.03;;
37677;SDS011;23517;50.390;8.616;2022-12-07T14:27:54;6.07;;;2.80;;
37677;SDS011;23517;50.390;8.616;2022-12-07T14:30:25;9.27;;;2.90;;
37677;SDS011;23517;50.390;8.616;2022-12-07T14:33:01;5.38;;;2.65;;
37677;SDS011;23517;50.390;8.616;2022-12-07T14:35:31;9.10;;;3.33;;
37677;SDS011;23517;50.390;8.616;2022-12-07T14:37:58;7.35;;;3.20;;
37677;SDS011;23517;50.390;8.616;2022-12-07T14:40:26;7.15;;;3.17;;
37677;SDS011;23517;50.390;8.616;2022-12-07T14:43:16;8.80;;;4.30;;
37677;SDS011;23517;50.390;8.616;2022-12-07T14:45:43;5.63;;;3.15;;
37677;SDS011;23517;50.390;8.616;2022-12-07T14:48:10;10.45;;;3.38;;
37677;SDS011;23517;50.390;8.616;2022-12-07T14:50:59;14.85;;;5.53;;
37677;SDS011;23517;50.390;8.616;2022-12-07T14:53:48;17.45;;;6.20;;
37677;SDS011;23517;50.390;8.616;2022-12-07T14:56:22;14.80;;;5.28;;
37677;SDS011;23517;50.390;8.616;2022-12-07T14:58:50;13.50;;;4.75;;
37677;SDS011;23517;50.390;8.616;2022-12-07T15:01:16;13.07;;;4.78;;
37677;SDS011;23517;50.390;8.616;2022-12-07T15:03:43;23.40;;;9.50;;
37677;SDS011;23517;50.390;8.616;2022-12-07T15:06:10;13.77;;;5.70;;
37677;SDS011;23517;50.390;8.616;2022-12-07T15:08:41;9.10;;;4.25;;
37677;SDS011;23517;50.390;8.616;2022-12-07T15:11:12;14.13;;;5.07;;
37677;SDS011;23517;50.390;8.616;2022-12-07T15:13:42;14.73;;;5.15;;
37677;SDS011;23517;50.390;8.616;2022-12-07T15:16:28;10.45;;;3.92;;
37677;SDS011;23517;50.390;8.616;2022-12-07T15:19:18;13.95;;;4.20;;
37677;SDS011;23517;50.390;8.616;2022-12-07T15:21:53;11.25;;;3.70;;
37677;SDS011;23517;50.390;8.616;2022-12-07T15:24:21;11.98;;;4.00;;
37677;SDS011;23517;50.390;8.616;2022-12-07T15:26:47;12.05;;;4.55;;
37677;SDS011;23517;50.390;8.616;2022-12-07T15:29:14;12.05;;;4.50;;
37677;SDS011;23517;50.390;8.616;2022-12-07T15:31:48;11.60;;;4.20;;
37677;SDS011;23517;50.390;8.616;2022-12-07T15:34:23;14.50;;;4.00;;
37677;SDS011;23517;50.390;8.616;2022-12-07T15:37:01;14.80;;;4.50;;
37677;SDS011;23517;50.390;8.616;2022-12-07T15:39:28;14.70;;;5.28;;
37677;SDS011;23517;50.390;8.616;2022-12-07T15:41:54;10.52;;;4.72;;
37677;SDS011;23517;50.390;8.616;2022-12-07T15:44:22;14.98;;;6.88;;
37677;SDS011;23517;50.390;8.616;2022-12-07T15:47:07;9.75;;;3.85;;
37677;SDS011;23517;50.390;8.616;2022-12-07T15:49:34;10.15;;;3.53;;
37677;SDS011;23517;50.390;8.616;2022-12-07T15:52:01;10.55;;;3.00;;
37677;SDS011;23517;50.390;8.616;2022-12-07T15:54:28;5.20;;;2.13;;
37677;SDS011;23517;50.390;8.616;2022-12-07T15:56:56;4.22;;;1.77;;
37677;SDS011;23517;50.390;8.616;2022-12-07T15:59:23;4.80;;;1.90;;
37677;SDS011;23517;50.390;8.616;2022-12-07T16:01:51;3.05;;;1.60;;
37677;SDS011;23517;50.390;8.616;2022-12-07T16:04:18;2.47;;;1.90;;
37677;SDS011;23517;50.390;8.616;2022-12-07T16:06:45;2.95;;;1.70;;
37677;SDS011;23517;50.390;8.616;2022-12-07T16:09:12;5.68;;;1.65;;
37677;SDS011;23517;50.390;8.616;2022-12-07T16:11:39;4.28;;;1.80;;
37677;SDS011;23517;50.390;8.616;2022-12-07T16:14:05;4.88;;;1.70;;
37677;SDS011;23517;50.390;8.616;2022-12-07T16:16:32;5.97;;;2.28;;
37677;SDS011;23517;50.390;8.616;2022-12-07T16:18:59;9.40;;;3.20;;
37677;SDS011;23517;50.390;8.616;2022-12-07T16:21:25;11.00;;;4.18;;
37677;SDS011;23517;50.390;8.616;2022-12-07T16:23:52;15.88;;;4.30;;
37677;SDS011;23517;50.390;8.616;2022-12-07T16:26:21;11.00;;;3.63;;
37677;SDS011;23517;50.390;8.616;2022-12-07T16:28:49;9.45;;;3.38;;
37677;SDS011;23517;50.390;8.616;2022-12-07T16:31:18;9.63;;;2.92;;
37677;SDS011;23517;50.390;8.616;2022-12-07T16:33:47;6.43;;;2.80;;
37677;SDS011;23517;50.390;8.616;2022-12-07T16:36:15;7.40;;;3.35;;
37677;SDS011;23517;50.390;8.616;2022-12-07T16:39:03;6.30;;;3.40;;
37677;SDS011;23517;50.390;8.616;2022-12-07T16:41:31;7.28;;;3.45;;
37677;SDS011;23517;50.390;8.616;2022-12-07T16:44:05;6.88;;;3.60;;
37677;SDS011;23517;50.390;8.616;2022-12-07T16:46:34;6.45;;;3.08;;
37677;SDS011;23517;50.390;8.616;2022-12-07T16:49:02;5.25;;;2.80;;
37677;SDS011;23517;50.390;8.616;2022-12-07T16:51:30;6.95;;;2.75;;